Time;durP1;ratioP1;P1;durP2;ratioP2;P2;SDS_P1;SDS_P2;PMS_P1;PMS_P2;Temp;Humidity;BMP_temperature;BMP_pressure;BME280_temperature;BME280_humidity;BME280_pressure;Samples;Min_cycle;Max_cycle;Signal;HPM_P1;HPM_P2
2022/02/15 07:46:17;;;;;;;;;;;;;;;;;;7424480;19;1417;-47
2022/02/15 07:48:44;;;;;;;;;;;;;;;;;;7425124;19;1181;-49
2022/02/15 07:51:11;;;;;;;;;;;;;;;;;;7423578;19;1078;-46
2022/02/15 07:53:40;;;;;;;;;;;;;;;;;;7426348;19;837;-45
2022/02/15 07:56:07;;;;;;;;;;;;;;;;;;7426360;19;1002;-42
2022/02/15 07:58:34;;;;;;;;;;;;;;;;;;7425348;19;1100;-42
2022/02/15 08:01:01;;;;;;;;;;;;;;;;;;7425429;19;896;-41
2022/02/15 08:03:29;;;;;;;;;;;;;;;;;;7425926;19;1029;-44
2022/02/15 08:05:56;;;;;;;;;;;;;;;;;;7421816;19;1894;-40
2022/02/15 08:08:24;;;;;;;;;;;;;;;;;;7425307;19;1301;-42
2022/02/15 08:10:51;;;;;;;;;;;;;;;;;;7426234;19;1011;-46
2022/02/15 08:13:18;;;;;;;;;;;;;;;;;;7424759;19;958;-41
2022/02/15 08:15:47;;;;;;;;;;;;;;;;;;7423825;19;1396;-46
2022/02/15 08:18:15;;;;;;;;;;;;;;;;;;7425309;19;1261;-43
2022/02/15 08:20:42;;;;;;;;;;;;;;;;;;7428262;19;924;-44
2022/02/15 08:23:12;;;;;;;;;;;;;;;;;;7426038;19;1283;-44
2022/02/15 08:25:40;;;;;;;;;;;;;;;;;;7422798;19;1858;-41
2022/02/15 08:28:09;;;;;;;;;;;;;;;;;;7425009;19;1102;-45
2022/02/15 08:30:36;;;;;;;;;;;;;;;;;;7424149;19;1021;-48
2022/02/15 08:33:04;;;;;;;;;;;;;;;;;;7424863;19;1108;-43
2022/02/15 08:35:31;;;;;;;;;;;;;;;;;;7424340;19;950;-43
2022/02/15 08:38:00;;;;;;;;;;;;;;;;;;7425121;19;966;-48
2022/02/15 08:40:28;;;;;;;;;;;;;;;;;;7425116;19;965;-42
2022/02/15 08:42:56;;;;;;;;;;;;;;;;;;7425616;19;1163;-42
2022/02/15 08:45:23;;;;;;;;;;;;;;;;;;7427387;19;1854;-45
2022/02/15 08:47:50;;;;;;;;;;;;;;;;;;7424692;19;946;-41
2022/02/15 08:50:18;;;;;;;;;;;;;;;;;;7424295;19;973;-42
2022/02/15 08:52:45;;;;;;;;;;;;;;;;;;7424468;19;892;-41
2022/02/15 08:55:12;;;;;;;;;;;;;;;;;;7423895;19;965;-45
2022/02/15 08:57:40;;;;;;;;;;;;;;;;;;7396229;19;1233;-41
2022/02/15 09:00:08;;;;;;;;;;;;;;;;;;7395421;19;966;-44
2022/02/15 09:02:38;;;;;;;;;;;;;;;;;;7395336;19;930;-46
2022/02/15 09:05:05;;;;;;;;;;;;;;;;;;7394270;19;1842;-51
2022/02/15 09:07:33;;;;;;;;;;;;;;;;;;7396191;19;970;-45
2022/02/15 09:10:02;;;;;;;;;;;;;;;;;;7394776;19;986;-46
2022/02/15 09:12:29;;;;;;;;;;;;;;;;;;7395121;19;894;-47
2022/02/15 09:14:57;;;;;;;;;;;;;;;;;;7396177;19;1280;-49
2022/02/15 09:17:27;;;;;;;;;;;;;;;;;;7395165;19;1326;-41
2022/02/15 09:19:54;;;;;;;;;;;;;;;;;;7395335;19;926;-41
2022/02/15 09:22:22;;;;;;;;;;;;;;;;;;7395349;19;958;-47
2022/02/15 09:24:51;;;;;;;;;;;;;;;;;;7393917;19;1811;-44
2022/02/15 09:27:18;;;;;;;;;;;;;;;;;;7397282;19;1044;-44
2022/02/15 09:29:45;;;;;;;;;;;;;;;;;;7394943;19;954;-48
2022/02/15 09:32:13;;;;;;;;;;;;;;;;;;7394053;19;879;-43
2022/02/15 09:34:40;;;;;;;;;;;;;;;;;;7395214;19;1176;-44
2022/02/15 09:37:09;;;;;;;;;;;;;;;;;;7394927;19;891;-42
2022/02/15 09:39:36;;;;;;;;;;;;;;;;;;7394341;19;868;-43
2022/02/15 09:42:03;;;;;;;;;;;;;;;;;;7393900;19;869;-44
2022/02/15 09:44:30;;;;;;;;;;;;;;;;;;7394846;19;1845;-43
2022/02/15 09:46:58;;;;;;;;;;;;;;;;;;7393512;19;958;-47
2022/02/15 09:52:12;;;;;;;;;;;;;;;;;;7393276;19;1034;-41
2022/02/15 09:54:39;;;;;;;;;;;;;;;;;;7393888;19;1049;-42
2022/02/15 09:57:09;;;;;;;;;;;;;;;;;;7392987;19;988;-43
2022/02/15 09:59:36;;;;;;;;;;;;;;;;;;7394347;19;1219;-49
2022/02/15 10:02:09;;;;;;;;;;;;;;;;;;7393714;19;872;-47
2022/02/15 10:04:36;;;;;;;;;;;;;;;;;;7392793;19;1842;-43
2022/02/15 10:07:05;;;;;;;;;;;;;;;;;;7390207;19;1388;-49
2022/02/15 10:09:33;;;;;;;;;;;;;;;;;;7389837;19;1251;-43
2022/02/15 10:12:02;;;;;;;;;;;;;;;;;;7393538;19;1224;-47
2022/02/15 10:14:29;;;;;;;;;;;;;;;;;;7392905;19;990;-45
2022/02/15 10:16:57;;;;;;;;;;;;;;;;;;7392724;19;934;-41
2022/02/15 10:19:25;;;;;;;;;;;;;;;;;;7392957;19;946;-43
2022/02/15 10:21:56;;;;;;;;;;;;;;;;;;7392234;19;935;-46
2022/02/15 10:24:24;;;;;;;;;;;;;;;;;;7393078;19;934;-45
2022/02/15 10:27:01;;;;;;;;;;;;;;;;;;7391562;19;1838;-58
2022/02/15 10:29:30;;;;;;;;;;;;;;;;;;7392736;19;922;-67
2022/02/15 10:31:58;;;;;;;;;;;;;;;;;;7392113;19;903;-64
2022/02/15 10:34:26;;;;;;;;;;;;;;;;;;7392958;19;954;-71
2022/02/15 10:37:00;;;;;;;;;;;;;;;;;;7392642;19;1026;-72
2022/02/15 10:39:55;;;;;;;;;;;;;;;;;;7392574;19;982;-63
2022/02/15 10:42:27;;;;;;;;;;;;;;;;;;7391861;19;1551;-59
2022/02/15 10:45:03;;;;;;;;;;;;;;;;;;7393864;19;1849;-60
2022/02/15 10:47:32;;;;;;;;;;;;;;;;;;7392271;19;1240;-66
2022/02/15 10:50:03;;;;;;;;;;;;;;;;;;7391252;19;1137;-64
2022/02/15 10:52:30;;;;;;;;;;;;;;;;;;7391986;19;1442;-66
2022/02/15 10:54:58;;;;;;;;;;;;;;;;;;7391679;19;954;-65
2022/02/15 10:57:30;;;;;;;;;;;;;;;;;;7391267;19;937;-69
2022/02/15 10:59:58;;;;;;;;;;;;;;;;;;7391562;19;897;-64
2022/02/15 11:02:27;;;;;;;;;;;;;;;;;;7392132;19;1390;-61
2022/02/15 11:04:55;;;;;;;;;;;;;;;;;;7395629;19;1830;-66
2022/02/15 11:07:23;;;;;;;;;;;;;;;;;;7391586;19;863;-61
2022/02/15 11:10:02;;;;;;;;;;;;;;;;;;7389846;19;999;-67
2022/02/15 11:12:48;;;;;;;;;;;;;;;;;;7394050;19;1429;-58
2022/02/15 11:15:19;;;;;;;;;;;;;;;;;;7393342;19;1427;-55
2022/02/15 11:17:47;;;;;;;;;;;;;;;;;;7390745;19;950;-67
2022/02/15 11:20:16;;;;;;;;;;;;;;;;;;7391812;19;1486;-59
2022/02/15 11:22:45;;;;;;;;;;;;;;;;;;7391465;19;884;-61
2022/02/15 11:25:12;;;;;;;;;;;;;;;;;;7392504;19;1849;-67
2022/02/15 11:27:48;;;;;;;;;;;;;;;;;;7394619;19;1351;-67
2022/02/15 11:30:16;;;;;;;;;;;;;;;;;;7394493;19;1419;-63
2022/02/15 11:32:44;;;;;;;;;;;;;;;;;;7390207;19;1359;-65
2022/02/15 11:35:16;;;;;;;;;;;;;;;;;;7395661;19;1446;-66
2022/02/15 11:37:43;;;;;;;;;;;;;;;;;;7390472;19;883;-64
2022/02/15 11:40:12;;;;;;;;;;;;;;;;;;7390968;19;848;-63
2022/02/15 11:42:47;;;;;;;;;;;;;;;;;;7390204;19;908;-65
2022/02/15 11:45:17;;;;;;;;;;;;;;;;;;7391029;19;1830;-60
2022/02/15 11:47:46;;;;;;;;;;;;;;;;;;7385717;19;893;-58
2022/02/15 11:50:15;;;;;;;;;;;;;;;;;;7390059;19;1191;-65
2022/02/15 11:52:44;;;;;;;;;;;;;;;;;;7395596;19;943;-61
2022/02/15 11:55:13;;;;;;;;;;;;;;;;;;7390097;19;987;-50
2022/02/15 11:57:41;;;;;;;;;;;;;;;;;;7389414;19;1010;-62
2022/02/15 12:00:10;;;;;;;;;;;;;;;;;;7389590;19;1054;-66
2022/02/15 12:02:38;;;;;;;;;;;;;;;;;;7389487;19;934;-68
2022/02/15 12:05:06;;;;;;;;;;;;;;;;;;7389222;19;1838;-61
2022/02/15 12:07:34;;;;;;;;;;;;;;;;;;7389260;19;987;-64
2022/02/15 12:10:05;;;;;;;;;;;;;;;;;;7389675;19;1113;-67
2022/02/15 12:12:33;;;;;;;;;;;;;;;;;;7389507;19;875;-61
2022/02/15 12:15:01;;;;;;;;;;;;;;;;;;7389222;19;923;-66
2022/02/15 12:17:28;;;;;;;;;;;;;;;;;;7389437;19;964;-62
2022/02/15 12:20:06;;;;;;;;;;;;;;;;;;7388837;19;919;-63
2022/02/15 12:22:37;;;;;;;;;;;;;;;;;;7389083;19;935;-61
2022/02/15 12:25:25;;;;;;;;;;;;;;;;;;7386675;19;1850;-70
2022/02/15 12:27:52;;;;;;;;;;;;;;;;;;7389264;19;966;-60
2022/02/15 12:30:20;;;;;;;;;;;;;;;;;;7387540;19;949;-62
2022/02/15 12:32:47;;;;;;;;;;;;;;;;;;7394505;19;1060;-67
2022/02/15 12:35:27;;;;;;;;;;;;;;;;;;7396387;19;938;-62
2022/02/15 12:37:59;;;;;;;;;;;;;;;;;;7396348;19;1166;-62
2022/02/15 12:40:29;;;;;;;;;;;;;;;;;;7396054;19;879;-62
2022/02/15 12:42:57;;;;;;;;;;;;;;;;;;7397194;19;978;-65
2022/02/15 12:45:24;;;;;;;;;;;;;;;;;;7395726;19;1843;-67
2022/02/15 12:47:52;;;;;;;;;;;;;;;;;;7395959;19;879;-70
2022/02/15 12:50:21;;;;;;;;;;;;;;;;;;7399910;19;1035;-65
2022/02/15 12:53:00;;;;;;;;;;;;;;;;;;7396182;19;910;-74
2022/02/15 12:55:41;;;;;;;;;;;;;;;;;;7391806;19;1115;-76
2022/02/15 12:58:13;;;;;;;;;;;;;;;;;;7394352;19;963;-76
2022/02/15 13:00:41;;;;;;;;;;;;;;;;;;7398100;19;927;-74
2022/02/15 13:03:10;;;;;;;;;;;;;;;;;;7395827;19;871;-77
2022/02/15 13:05:38;;;;;;;;;;;;;;;;;;7396933;19;1835;-71
2022/02/15 13:08:15;;;;;;;;;;;;;;;;;;7394070;19;947;-79
2022/02/15 13:10:42;;;;;;;;;;;;;;;;;;7394517;19;1202;-81
2022/02/15 13:13:11;;;;;;;;;;;;;;;;;;7395320;19;909;-75
2022/02/15 13:15:38;;;;;;;;;;;;;;;;;;7394709;19;926;-81
2022/02/15 13:18:07;;;;;;;;;;;;;;;;;;7396951;19;1079;-63
2022/02/15 13:20:42;;;;;;;;;;;;;;;;;;7393645;19;1011;-66
2022/02/15 13:23:10;;;;;;;;;;;;;;;;;;7395005;19;1046;-68
2022/02/15 13:25:38;;;;;;;;;;;;;;;;;;7394350;19;1853;-63
2022/02/15 13:28:05;;;;;;;;;;;;;;;;;;7393940;19;977;-63
2022/02/15 13:30:32;;;;;;;;;;;;;;;;;;7396549;19;1085;-75
2022/02/15 13:33:07;;;;;;;;;;;;;;;;;;7394556;19;961;-73
2022/02/15 13:35:36;;;;;;;;;;;;;;;;;;7394285;19;967;-72
2022/02/15 13:38:06;;;;;;;;;;;;;;;;;;7393348;19;938;-73
2022/02/15 13:40:33;;;;;;;;;;;;;;;;;;7393808;19;1065;-73
2022/02/15 13:43:01;;;;;;;;;;;;;;;;;;7393849;19;883;-74
2022/02/15 13:45:28;;;;;;;;;;;;;;;;;;7395763;19;1848;-67
2022/02/15 13:47:56;;;;;;;;;;;;;;;;;;7393847;19;883;-72
2022/02/15 13:50:24;;;;;;;;;;;;;;;;;;7392350;19;1303;-64
2022/02/15 13:52:53;;;;;;;;;;;;;;;;;;7394281;19;1313;-67
2022/02/15 13:55:25;;;;;;;;;;;;;;;;;;7394894;19;994;-72
2022/02/15 13:57:58;;;;;;;;;;;;;;;;;;7393447;19;2093;-63
2022/02/15 14:00:26;;;;;;;;;;;;;;;;;;7393502;19;2036;-68
2022/02/15 14:02:54;;;;;;;;;;;;;;;;;;7393881;19;2214;-71
2022/02/15 14:05:22;;;;;;;;;;;;;;;;;;7393077;19;2194;-71
2022/02/15 14:07:49;;;;;;;;;;;;;;;;;;7390783;19;2137;-72
2022/02/15 14:10:16;;;;;;;;;;;;;;;;;;7392944;19;2179;-69
2022/02/15 14:12:46;;;;;;;;;;;;;;;;;;7397255;19;2098;-73
2022/02/15 14:15:15;;;;;;;;;;;;;;;;;;7393174;19;2205;-66
2022/02/15 14:17:46;;;;;;;;;;;;;;;;;;7396186;19;2629;-72
2022/02/15 14:20:17;;;;;;;;;;;;;;;;;;7393109;19;2167;-69
2022/02/15 14:22:45;;;;;;;;;;;;;;;;;;7392808;19;2212;-69
2022/02/15 14:25:13;;;;;;;;;;;;;;;;;;7392513;19;2178;-70
2022/02/15 14:27:41;;;;;;;;;;;;;;;;;;7391013;19;2071;-71
2022/02/15 14:30:13;;;;;;;;;;;;;;;;;;7393013;19;2040;-73
2022/02/15 14:32:44;;;;;;;;;;;;;;;;;;7391559;19;2390;-63
2022/02/15 14:35:12;;;;;;;;;;;;;;;;;;7392578;19;2113;-63
2022/02/15 14:37:40;;;;;;;;;;;;;;;;;;7391278;19;2133;-65
2022/02/15 14:40:08;;;;;;;;;;;;;;;;;;7391932;19;2119;-65
2022/02/15 14:42:36;;;;;;;;;;;;;;;;;;7392446;19;2218;-65
2022/02/15 14:45:04;;;;;;;;;;;;;;;;;;7393769;19;1452;-65
2022/02/15 14:47:31;;;;;;;;;;;;;;;;;;7390780;19;2080;-65
2022/02/15 14:50:00;;;;;;;;;;;;;;;;;;7392174;19;2145;-65
2022/02/15 14:52:29;;;;;;;;;;;;;;;;;;7391337;19;2357;-65
2022/02/15 14:54:56;;;;;;;;;;;;;;;;;;7390377;19;2048;-65
2022/02/15 14:57:23;;;;;;;;;;;;;;;;;;7391840;19;2160;-64
2022/02/15 14:59:50;;;;;;;;;;;;;;;;;;7392179;19;2071;-66
2022/02/15 15:02:18;;;;;;;;;;;;;;;;;;7391187;19;2118;-64
2022/02/15 15:04:45;;;;;;;;;;;;;;;;;;7391138;19;2087;-66
2022/02/15 15:07:12;;;;;;;;;;;;;;;;;;7390656;19;2283;-65
2022/02/15 15:09:42;;;;;;;;;;;;;;;;;;7392662;19;2117;-65
2022/02/15 15:12:09;;;;;;;;;;;;;;;;;;7391038;19;2105;-66
2022/02/15 15:14:36;;;;;;;;;;;;;;;;;;7389852;19;1445;-66
2022/02/15 15:17:08;;;;;;;;;;;;;;;;;;7390977;19;2087;-67
2022/02/15 15:19:36;;;;;;;;;;;;;;;;;;7391159;19;2570;-67
2022/02/15 15:22:04;;;;;;;;;;;;;;;;;;7391047;19;2085;-66
2022/02/15 15:24:32;;;;;;;;;;;;;;;;;;7391550;19;2323;-65
2022/02/15 15:27:01;;;;;;;;;;;;;;;;;;7390084;19;2251;-64
2022/02/15 15:29:28;;;;;;;;;;;;;;;;;;7390627;19;2162;-63
2022/02/15 15:31:56;;;;;;;;;;;;;;;;;;7390989;19;2178;-64
2022/02/15 15:34:23;;;;;;;;;;;;;;;;;;7391761;19;2167;-66
2022/02/15 15:36:50;;;;;;;;;;;;;;;;;;7391192;19;2266;-66
2022/02/15 15:39:18;;;;;;;;;;;;;;;;;;7390554;19;2049;-59
2022/02/15 15:41:49;;;;;;;;;;;;;;;;;;7390539;19;2225;-69
2022/02/15 15:44:16;;;;;;;;;;;;;;;;;;7391474;19;2166;-66
2022/02/15 15:46:43;;;;;;;;;;;;;;;;;;7389913;19;2194;-65
2022/02/15 15:49:10;;;;;;;;;;;;;;;;;;7391449;19;2119;-70
2022/02/15 15:51:43;;;;;;;;;;;;;;;;;;7390770;19;2201;-73
2022/02/15 15:54:11;;;;;;;;;;;;;;;;;;7391221;19;2258;-75
2022/02/15 15:56:38;;;;;;;;;;;;;;;;;;7391234;19;1908;-69
2022/02/15 15:59:05;;;;;;;;;;;;;;;;;;7390067;19;2173;-74
2022/02/15 16:01:33;;;;;;;;;;;;;;;;;;7389207;19;2221;-61
2022/02/15 16:04:00;;;;;;;;;;;;;;;;;;7391229;19;1968;-65
2022/02/15 16:06:30;;;;;;;;;;;;;;;;;;7391372;19;2208;-69
2022/02/15 16:08:58;;;;;;;;;;;;;;;;;;7397542;19;2176;-71
2022/02/15 16:11:25;;;;;;;;;;;;;;;;;;7398265;19;2026;-74
2022/02/15 16:13:53;;;;;;;;;;;;;;;;;;7398520;19;2143;-62
2022/02/15 16:16:21;;;;;;;;;;;;;;;;;;7398342;19;2082;-68
2022/02/15 16:18:48;;;;;;;;;;;;;;;;;;7397343;19;2553;-62
2022/02/15 16:21:15;;;;;;;;;;;;;;;;;;7396891;19;2227;-61
2022/02/15 16:23:42;;;;;;;;;;;;;;;;;;7397650;19;2158;-63
2022/02/15 16:26:10;;;;;;;;;;;;;;;;;;7396454;19;2345;-75
2022/02/15 16:28:37;;;;;;;;;;;;;;;;;;7397678;19;2173;-70
2022/02/15 16:31:09;;;;;;;;;;;;;;;;;;7397831;19;2141;-62
2022/02/15 16:33:38;;;;;;;;;;;;;;;;;;7397756;19;2160;-62
2022/02/15 16:36:05;;;;;;;;;;;;;;;;;;7396684;19;2194;-62
2022/02/15 16:38:32;;;;;;;;;;;;;;;;;;7397361;19;2074;-64
2022/02/15 16:41:00;;;;;;;;;;;;;;;;;;7396239;19;2174;-71
2022/02/15 16:43:28;;;;;;;;;;;;;;;;;;7397327;19;2022;-67
2022/02/15 16:45:57;;;;;;;;;;;;;;;;;;7398881;19;2132;-75
2022/02/15 16:48:28;;;;;;;;;;;;;;;;;;7393982;19;2102;-74
2022/02/15 16:50:55;;;;;;;;;;;;;;;;;;7397132;19;2068;-63
2022/02/15 16:53:22;;;;;;;;;;;;;;;;;;7394751;19;2204;-68
2022/02/15 16:55:50;;;;;;;;;;;;;;;;;;7396104;19;2521;-59
2022/02/15 16:58:18;;;;;;;;;;;;;;;;;;7396026;19;2100;-69
2022/02/15 17:00:45;;;;;;;;;;;;;;;;;;7396033;19;2257;-64
2022/02/15 17:03:12;;;;;;;;;;;;;;;;;;7396005;19;2122;-62
2022/02/15 17:05:40;;;;;;;;;;;;;;;;;;7394471;19;2143;-62
2022/02/15 17:08:10;;;;;;;;;;;;;;;;;;7392290;19;2253;-62
2022/02/15 17:10:37;;;;;;;;;;;;;;;;;;7393784;19;2039;-62
2022/02/15 17:13:10;;;;;;;;;;;;;;;;;;7399281;19;2224;-61
2022/02/15 17:15:37;;;;;;;;;;;;;;;;;;7395409;19;2101;-62
2022/02/15 17:18:04;;;;;;;;;;;;;;;;;;7394627;19;2110;-62
2022/02/15 17:20:31;;;;;;;;;;;;;;;;;;7393603;19;2144;-62
2022/02/15 17:22:59;;;;;;;;;;;;;;;;;;7395638;19;2318;-62
2022/02/15 17:25:26;;;;;;;;;;;;;;;;;;7394882;19;2231;-61
2022/02/15 17:27:53;;;;;;;;;;;;;;;;;;7393631;19;2097;-62
2022/02/15 17:30:20;;;;;;;;;;;;;;;;;;7395484;19;2305;-64
2022/02/15 17:32:48;;;;;;;;;;;;;;;;;;7394775;19;2221;-63
2022/02/15 17:35:15;;;;;;;;;;;;;;;;;;7394693;19;2126;-62
2022/02/15 17:37:46;;;;;;;;;;;;;;;;;;7395425;19;1971;-63
2022/02/15 17:40:13;;;;;;;;;;;;;;;;;;7395452;19;2110;-62
2022/02/15 17:42:42;;;;;;;;;;;;;;;;;;7394767;19;2514;-61
2022/02/15 17:45:11;;;;;;;;;;;;;;;;;;7396250;19;2231;-64
2022/02/15 17:47:38;;;;;;;;;;;;;;;;;;7393672;19;2254;-65
2022/02/15 17:50:05;;;;;;;;;;;;;;;;;;7394325;19;2049;-67
2022/02/15 17:52:33;;;;;;;;;;;;;;;;;;7394542;19;2026;-62
2022/02/15 17:55:01;;;;;;;;;;;;;;;;;;7393759;19;2325;-62
2022/02/15 17:57:29;;;;;;;;;;;;;;;;;;7395155;19;2332;-61
2022/02/15 17:59:56;;;;;;;;;;;;;;;;;;7393656;19;2183;-65
2022/02/15 18:02:23;;;;;;;;;;;;;;;;;;7394819;19;1911;-64
2022/02/15 18:04:51;;;;;;;;;;;;;;;;;;7394432;19;1875;-65
2022/02/15 18:07:20;;;;;;;;;;;;;;;;;;7392474;19;2688;-61
2022/02/15 18:09:47;;;;;;;;;;;;;;;;;;7393306;19;2086;-61
2022/02/15 18:12:18;;;;;;;;;;;;;;;;;;7393074;19;2069;-62
2022/02/15 18:14:45;;;;;;;;;;;;;;;;;;7393909;19;2246;-64
2022/02/15 18:17:16;;;;;;;;;;;;;;;;;;7394151;19;2182;-65
2022/02/15 18:19:43;;;;;;;;;;;;;;;;;;7393337;19;2074;-61
2022/02/15 18:22:10;;;;;;;;;;;;;;;;;;7393333;19;2024;-61
2022/02/15 18:24:38;;;;;;;;;;;;;;;;;;7393776;19;2078;-65
2022/02/15 18:27:05;;;;;;;;;;;;;;;;;;7392345;19;2385;-61
2022/02/15 18:29:33;;;;;;;;;;;;;;;;;;7391875;19;2198;-63
2022/02/15 18:32:03;;;;;;;;;;;;;;;;;;7394616;19;2229;-56
2022/02/15 18:34:46;;;;;;;;;;;;;;;;;;7393320;19;2088;-63
2022/02/15 18:37:16;;;;;;;;;;;;;;;;;;7393316;19;2109;-60
2022/02/15 18:39:43;;;;;;;;;;;;;;;;;;7393563;19;1936;-60
2022/02/15 18:42:11;;;;;;;;;;;;;;;;;;7392824;19;2127;-60
2022/02/15 18:44:38;;;;;;;;;;;;;;;;;;7394092;19;2282;-60
2022/02/15 18:47:06;;;;;;;;;;;;;;;;;;7391767;19;2108;-59
2022/02/15 18:49:34;;;;;;;;;;;;;;;;;;7393234;19;2109;-61
2022/02/15 18:52:01;;;;;;;;;;;;;;;;;;7390526;19;2098;-61
2022/02/15 18:54:29;;;;;;;;;;;;;;;;;;7392557;19;2089;-60
2022/02/15 18:56:56;;;;;;;;;;;;;;;;;;7392458;19;2216;-61
2022/02/15 18:59:25;;;;;;;;;;;;;;;;;;7392292;19;2315;-60
2022/02/15 19:01:53;;;;;;;;;;;;;;;;;;7392377;19;2006;-62
2022/02/15 19:04:20;;;;;;;;;;;;;;;;;;7390616;19;2154;-60
2022/02/15 19:06:48;;;;;;;;;;;;;;;;;;7392403;19;2528;-59
2022/02/15 19:09:15;;;;;;;;;;;;;;;;;;7391756;19;2102;-61
2022/02/15 19:11:44;;;;;;;;;;;;;;;;;;7392098;19;2063;-62
2022/02/15 19:14:14;;;;;;;;;;;;;;;;;;7392150;19;2074;-61
2022/02/15 19:16:42;;;;;;;;;;;;;;;;;;7391783;19;2017;-63
2022/02/15 19:19:16;;;;;;;;;;;;;;;;;;7391357;19;2188;-62
2022/02/15 19:21:46;;;;;;;;;;;;;;;;;;7391546;19;2289;-63
2022/02/15 19:24:16;;;;;;;;;;;;;;;;;;7391550;19;2142;-62
2022/02/15 19:26:45;;;;;;;;;;;;;;;;;;7391224;19;2090;-62
2022/02/15 19:29:13;;;;;;;;;;;;;;;;;;7389867;19;2127;-63
2022/02/15 19:31:41;;;;;;;;;;;;;;;;;;7390743;19;2259;-59
2022/02/15 19:34:09;;;;;;;;;;;;;;;;;;7391212;19;2219;-61
2022/02/15 19:36:36;;;;;;;;;;;;;;;;;;7391135;19;2043;-62
2022/02/15 19:39:07;;;;;;;;;;;;;;;;;;7391244;19;2281;-61
2022/02/15 19:41:37;;;;;;;;;;;;;;;;;;7390259;19;2159;-60
2022/02/15 19:44:05;;;;;;;;;;;;;;;;;;7392090;19;2136;-61
2022/02/15 19:46:33;;;;;;;;;;;;;;;;;;7388906;19;2158;-62
2022/02/15 19:49:01;;;;;;;;;;;;;;;;;;7389568;19;2254;-62
2022/02/15 19:51:29;;;;;;;;;;;;;;;;;;7390337;19;2181;-63
2022/02/15 19:53:59;;;;;;;;;;;;;;;;;;7391164;19;2194;-61
2022/02/15 19:56:27;;;;;;;;;;;;;;;;;;7390157;19;2183;-63
2022/02/15 19:58:54;;;;;;;;;;;;;;;;;;7390587;19;2515;-66
2022/02/15 20:01:22;;;;;;;;;;;;;;;;;;7391132;19;2202;-66
2022/02/15 20:03:50;;;;;;;;;;;;;;;;;;7390635;19;2135;-62
2022/02/15 20:06:20;;;;;;;;;;;;;;;;;;7390247;19;2107;-58
2022/02/15 20:08:49;;;;;;;;;;;;;;;;;;7388481;19;2137;-61
2022/02/15 20:11:16;;;;;;;;;;;;;;;;;;7389684;19;2071;-60
2022/02/15 20:13:43;;;;;;;;;;;;;;;;;;7389938;19;2063;-64
2022/02/15 20:16:11;;;;;;;;;;;;;;;;;;7390249;19;2075;-61
2022/02/15 20:18:38;;;;;;;;;;;;;;;;;;7389755;19;2355;-61
2022/02/15 20:21:05;;;;;;;;;;;;;;;;;;7389709;19;2114;-62
2022/02/15 20:23:34;;;;;;;;;;;;;;;;;;7390001;19;2111;-61
2022/02/15 20:26:02;;;;;;;;;;;;;;;;;;7389142;19;2061;-62
2022/02/15 20:28:29;;;;;;;;;;;;;;;;;;7389128;19;2093;-67
2022/02/15 20:30:57;;;;;;;;;;;;;;;;;;7388656;19;2129;-61
2022/02/15 20:33:25;;;;;;;;;;;;;;;;;;7390046;19;2019;-67
2022/02/15 20:35:56;;;;;;;;;;;;;;;;;;7390188;19;2154;-63
2022/02/15 20:38:24;;;;;;;;;;;;;;;;;;7389153;19;2042;-67
2022/02/15 20:40:52;;;;;;;;;;;;;;;;;;7389580;19;2084;-61
2022/02/15 20:43:21;;;;;;;;;;;;;;;;;;7389444;19;2163;-66
2022/02/15 20:45:51;;;;;;;;;;;;;;;;;;7392062;19;2203;-61
2022/02/15 20:48:19;;;;;;;;;;;;;;;;;;7387900;19;2164;-67
2022/02/15 20:50:48;;;;;;;;;;;;;;;;;;7388956;19;2122;-66
2022/02/15 20:53:16;;;;;;;;;;;;;;;;;;7392404;19;2158;-64
2022/02/15 20:55:47;;;;;;;;;;;;;;;;;;7396675;19;2194;-61
2022/02/15 20:58:14;;;;;;;;;;;;;;;;;;7396304;19;2031;-65
2022/02/15 21:00:42;;;;;;;;;;;;;;;;;;7396887;19;2283;-60
2022/02/15 21:03:10;;;;;;;;;;;;;;;;;;7396507;19;2174;-63
2022/02/15 21:05:37;;;;;;;;;;;;;;;;;;7395586;19;2081;-65
2022/02/15 21:08:05;;;;;;;;;;;;;;;;;;7394833;19;2176;-62
2022/02/15 21:10:34;;;;;;;;;;;;;;;;;;7395873;19;2237;-62
2022/02/15 21:13:01;;;;;;;;;;;;;;;;;;7398143;19;2147;-62
2022/02/15 21:15:31;;;;;;;;;;;;;;;;;;7395780;19;2155;-61
2022/02/15 21:17:58;;;;;;;;;;;;;;;;;;7395606;19;2257;-66
2022/02/15 21:20:26;;;;;;;;;;;;;;;;;;7395737;19;2118;-62
2022/02/15 21:22:54;;;;;;;;;;;;;;;;;;7393316;19;2160;-76
2022/02/15 21:25:23;;;;;;;;;;;;;;;;;;7395572;19;2249;-64
2022/02/15 21:27:51;;;;;;;;;;;;;;;;;;7392421;19;2275;-63
2022/02/15 21:30:18;;;;;;;;;;;;;;;;;;7395222;19;2054;-63
2022/02/15 21:32:45;;;;;;;;;;;;;;;;;;7395480;19;2205;-61
2022/02/15 21:35:12;;;;;;;;;;;;;;;;;;7394774;19;2096;-62
2022/02/15 21:37:39;;;;;;;;;;;;;;;;;;7394683;19;2283;-62
2022/02/15 21:40:07;;;;;;;;;;;;;;;;;;7394837;19;2180;-62
2022/02/15 21:42:34;;;;;;;;;;;;;;;;;;7395004;19;2199;-64
2022/02/15 21:45:02;;;;;;;;;;;;;;;;;;7395941;19;2186;-64
2022/02/15 21:47:33;;;;;;;;;;;;;;;;;;7395222;19;2221;-62
2022/02/15 21:50:04;;;;;;;;;;;;;;;;;;7395049;19;2074;-62
2022/02/15 21:52:31;;;;;;;;;;;;;;;;;;7395715;19;1982;-61
2022/02/15 21:55:01;;;;;;;;;;;;;;;;;;7395375;19;2180;-62
2022/02/15 21:57:29;;;;;;;;;;;;;;;;;;7394730;19;2123;-63
2022/02/15 21:59:56;;;;;;;;;;;;;;;;;;7394431;19;2276;-61
2022/02/15 22:02:27;;;;;;;;;;;;;;;;;;7394011;19;2152;-62
2022/02/15 22:04:55;;;;;;;;;;;;;;;;;;7393639;19;2165;-61
2022/02/15 22:07:22;;;;;;;;;;;;;;;;;;7394144;19;2068;-65
2022/02/15 22:09:50;;;;;;;;;;;;;;;;;;7391625;19;2083;-62
2022/02/15 22:12:17;;;;;;;;;;;;;;;;;;7393535;19;2060;-60
2022/02/15 22:14:45;;;;;;;;;;;;;;;;;;7393348;19;2167;-62
2022/02/15 22:17:12;;;;;;;;;;;;;;;;;;7393558;19;1958;-61
2022/02/15 22:19:41;;;;;;;;;;;;;;;;;;7392214;19;2047;-62
2022/02/15 22:22:08;;;;;;;;;;;;;;;;;;7393843;19;2170;-62
2022/02/15 22:24:36;;;;;;;;;;;;;;;;;;7392630;19;2084;-62
2022/02/15 22:27:03;;;;;;;;;;;;;;;;;;7393882;19;2222;-62
2022/02/15 22:29:31;;;;;;;;;;;;;;;;;;7391801;19;2086;-63
2022/02/15 22:31:58;;;;;;;;;;;;;;;;;;7393438;19;2062;-62
2022/02/15 22:34:25;;;;;;;;;;;;;;;;;;7393114;19;2225;-63
2022/02/15 22:36:53;;;;;;;;;;;;;;;;;;7393489;19;2241;-62
2022/02/15 22:39:21;;;;;;;;;;;;;;;;;;7393116;19;2202;-63
2022/02/15 22:41:48;;;;;;;;;;;;;;;;;;7393331;19;2144;-62
2022/02/15 22:44:17;;;;;;;;;;;;;;;;;;7393682;19;2392;-61
2022/02/15 22:46:45;;;;;;;;;;;;;;;;;;7393264;19;2099;-63
2022/02/15 22:52:04;;;;;;;;;;;;;;;;;;7392288;19;2038;-61
2022/02/15 22:54:34;;;;;;;;;;;;;;;;;;7392660;19;2157;-62
2022/02/15 22:57:02;;;;;;;;;;;;;;;;;;7392994;19;2078;-62
2022/02/15 22:59:30;;;;;;;;;;;;;;;;;;7392466;19;2146;-62
2022/02/15 23:01:59;;;;;;;;;;;;;;;;;;7392202;19;2058;-61
2022/02/15 23:04:27;;;;;;;;;;;;;;;;;;7392539;19;2066;-62
2022/02/15 23:18:02;;;;;;;;;;;;;;;;;;7392472;19;2092;-62
2022/02/15 23:20:31;;;;;;;;;;;;;;;;;;7391590;19;2146;-62
2022/02/15 23:23:02;;;;;;;;;;;;;;;;;;7391628;19;2121;-62
2022/02/15 23:25:30;;;;;;;;;;;;;;;;;;7390671;19;2158;-62
2022/02/15 23:27:57;;;;;;;;;;;;;;;;;;7391546;19;2174;-63
2022/02/15 23:30:25;;;;;;;;;;;;;;;;;;7391623;19;2129;-62
2022/02/15 23:32:53;;;;;;;;;;;;;;;;;;7391581;19;1986;-62
2022/02/15 23:35:20;;;;;;;;;;;;;;;;;;7390661;19;2093;-63
2022/02/15 23:37:47;;;;;;;;;;;;;;;;;;7391613;19;2152;-63
2022/02/15 23:40:15;;;;;;;;;;;;;;;;;;7390983;19;2319;-62
2022/02/15 23:42:45;;;;;;;;;;;;;;;;;;7391355;19;2094;-61
2022/02/15 23:45:15;;;;;;;;;;;;;;;;;;7393012;19;2186;-62
2022/02/15 23:47:42;;;;;;;;;;;;;;;;;;7390433;19;2147;-62
2022/02/15 23:50:12;;;;;;;;;;;;;;;;;;7389121;19;2217;-63
2022/02/15 23:52:40;;;;;;;;;;;;;;;;;;7391199;19;1945;-62
2022/02/15 23:55:12;;;;;;;;;;;;;;;;;;7390319;19;2126;-62
2022/02/15 23:57:39;;;;;;;;;;;;;;;;;;7389998;19;2162;-62
